sensor_id;sensor_type;location;lat;lon;timestamp;P1;durP1;ratioP1;P2;durP2;ratioP2
18455;SDS011;9357;49.900;8.208;2023-03-01T00:00:02;18.33;;;10.90;;
18455;SDS011;9357;49.900;8.208;2023-03-01T00:01:37;20.60;;;11.10;;
18455;SDS011;9357;49.900;8.208;2023-03-01T00:03:10;16.23;;;11.38;;
18455;SDS011;9357;49.900;8.208;2023-03-01T00:04:43;18.73;;;11.02;;
18455;SDS011;9357;49.900;8.208;2023-03-01T00:06:16;17.33;;;10.90;;
18455;SDS011;9357;49.900;8.208;2023-03-01T00:07:48;20.15;;;11.15;;
18455;SDS011;9357;49.900;8.208;2023-03-01T00:09:24;17.48;;;10.68;;
18455;SDS011;9357;49.900;8.208;2023-03-01T00:11:00;18.58;;;11.18;;
18455;SDS011;9357;49.900;8.208;2023-03-01T00:12:33;18.70;;;11.07;;
18455;SDS011;9357;49.900;8.208;2023-03-01T00:14:07;17.73;;;10.95;;
18455;SDS011;9357;49.900;8.208;2023-03-01T00:15:40;18.17;;;11.02;;
18455;SDS011;9357;49.900;8.208;2023-03-01T00:17:13;16.42;;;11.95;;
18455;SDS011;9357;49.900;8.208;2023-03-01T00:18:45;18.10;;;11.68;;
18455;SDS011;9357;49.900;8.208;2023-03-01T00:20:19;18.38;;;11.70;;
18455;SDS011;9357;49.900;8.208;2023-03-01T00:21:52;20.92;;;11.88;;
18455;SDS011;9357;49.900;8.208;2023-03-01T00:23:25;18.10;;;12.23;;
18455;SDS011;9357;49.900;8.208;2023-03-01T00:24:58;21.77;;;11.85;;
18455;SDS011;9357;49.900;8.208;2023-03-01T00:26:31;17.92;;;11.30;;
18455;SDS011;9357;49.900;8.208;2023-03-01T00:28:04;18.23;;;11.60;;
18455;SDS011;9357;49.900;8.208;2023-03-01T00:29:35;19.27;;;11.80;;
18455;SDS011;9357;49.900;8.208;2023-03-01T00:31:09;18.33;;;11.38;;
18455;SDS011;9357;49.900;8.208;2023-03-01T00:32:44;19.20;;;10.77;;
18455;SDS011;9357;49.900;8.208;2023-03-01T00:34:17;17.42;;;11.50;;
18455;SDS011;9357;49.900;8.208;2023-03-01T00:35:51;17.35;;;11.50;;
18455;SDS011;9357;49.900;8.208;2023-03-01T00:37:24;18.02;;;11.90;;
18455;SDS011;9357;49.900;8.208;2023-03-01T00:38:55;18.73;;;12.13;;
18455;SDS011;9357;49.900;8.208;2023-03-01T00:40:29;17.60;;;11.15;;
18455;SDS011;9357;49.900;8.208;2023-03-01T00:42:03;19.45;;;11.27;;
18455;SDS011;9357;49.900;8.208;2023-03-01T00:43:36;17.85;;;11.05;;
18455;SDS011;9357;49.900;8.208;2023-03-01T00:45:10;19.55;;;11.80;;
18455;SDS011;9357;49.900;8.208;2023-03-01T00:46:44;17.10;;;11.05;;
18455;SDS011;9357;49.900;8.208;2023-03-01T00:48:17;17.35;;;10.90;;
18455;SDS011;9357;49.900;8.208;2023-03-01T00:49:49;18.55;;;11.82;;
18455;SDS011;9357;49.900;8.208;2023-03-01T00:51:23;18.48;;;11.85;;
18455;SDS011;9357;49.900;8.208;2023-03-01T00:52:57;19.83;;;12.40;;
18455;SDS011;9357;49.900;8.208;2023-03-01T00:54:30;19.80;;;12.18;;
18455;SDS011;9357;49.900;8.208;2023-03-01T00:56:03;18.63;;;11.75;;
18455;SDS011;9357;49.900;8.208;2023-03-01T00:57:36;17.75;;;11.70;;
18455;SDS011;9357;49.900;8.208;2023-03-01T00:59:09;18.00;;;11.98;;
18455;SDS011;9357;49.900;8.208;2023-03-01T01:00:42;18.85;;;11.75;;
18455;SDS011;9357;49.900;8.208;2023-03-01T01:02:13;18.30;;;11.52;;
18455;SDS011;9357;49.900;8.208;2023-03-01T01:03:46;18.38;;;11.63;;
18455;SDS011;9357;49.900;8.208;2023-03-01T01:05:20;15.50;;;10.63;;
18455;SDS011;9357;49.900;8.208;2023-03-01T01:06:54;20.48;;;11.88;;
18455;SDS011;9357;49.900;8.208;2023-03-01T01:08:27;18.80;;;12.27;;
18455;SDS011;9357;49.900;8.208;2023-03-01T01:09:59;17.80;;;11.88;;
18455;SDS011;9357;49.900;8.208;2023-03-01T01:11:32;17.80;;;12.02;;
18455;SDS011;9357;49.900;8.208;2023-03-01T01:13:06;18.50;;;11.63;;
18455;SDS011;9357;49.900;8.208;2023-03-01T01:14:38;18.88;;;11.90;;
18455;SDS011;9357;49.900;8.208;2023-03-01T01:16:10;20.60;;;11.77;;
18455;SDS011;9357;49.900;8.208;2023-03-01T01:17:42;19.80;;;12.20;;
18455;SDS011;9357;49.900;8.208;2023-03-01T01:19:15;17.13;;;11.43;;
18455;SDS011;9357;49.900;8.208;2023-03-01T01:20:48;20.17;;;12.43;;
18455;SDS011;9357;49.900;8.208;2023-03-01T01:22:21;20.25;;;12.82;;
18455;SDS011;9357;49.900;8.208;2023-03-01T01:23:54;19.77;;;11.98;;
18455;SDS011;9357;49.900;8.208;2023-03-01T01:25:27;19.85;;;12.98;;
18455;SDS011;9357;49.900;8.208;2023-03-01T01:27:00;19.70;;;12.18;;
18455;SDS011;9357;49.900;8.208;2023-03-01T01:28:33;20.50;;;12.50;;
18455;SDS011;9357;49.900;8.208;2023-03-01T01:30:05;20.17;;;12.20;;
18455;SDS011;9357;49.900;8.208;2023-03-01T01:31:39;17.90;;;12.45;;
18455;SDS011;9357;49.900;8.208;2023-03-01T01:33:13;22.08;;;12.73;;
18455;SDS011;9357;49.900;8.208;2023-03-01T01:34:45;21.60;;;12.18;;
18455;SDS011;9357;49.900;8.208;2023-03-01T01:36:18;21.08;;;12.48;;
18455;SDS011;9357;49.900;8.208;2023-03-01T01:37:52;18.88;;;11.73;;
18455;SDS011;9357;49.900;8.208;2023-03-01T01:39:25;19.42;;;11.93;;
18455;SDS011;9357;49.900;8.208;2023-03-01T01:40:58;18.35;;;11.98;;
18455;SDS011;9357;49.900;8.208;2023-03-01T01:42:30;17.13;;;11.60;;
18455;SDS011;9357;49.900;8.208;2023-03-01T01:44:10;18.83;;;11.82;;
18455;SDS011;9357;49.900;8.208;2023-03-01T01:45:45;19.15;;;11.90;;
18455;SDS011;9357;49.900;8.208;2023-03-01T01:47:18;19.10;;;11.77;;
18455;SDS011;9357;49.900;8.208;2023-03-01T01:48:55;18.27;;;11.63;;
18455;SDS011;9357;49.900;8.208;2023-03-01T01:50:29;18.70;;;12.10;;
18455;SDS011;9357;49.900;8.208;2023-03-01T01:52:09;20.00;;;12.02;;
18455;SDS011;9357;49.900;8.208;2023-03-01T01:53:48;19.65;;;11.93;;
18455;SDS011;9357;49.900;8.208;2023-03-01T01:55:25;19.05;;;12.45;;
18455;SDS011;9357;49.900;8.208;2023-03-01T01:57:00;18.10;;;12.23;;
18455;SDS011;9357;49.900;8.208;2023-03-01T01:58:37;21.23;;;12.52;;
18455;SDS011;9357;49.900;8.208;2023-03-01T02:00:13;18.77;;;12.30;;
18455;SDS011;9357;49.900;8.208;2023-03-01T02:01:47;20.55;;;12.10;;
18455;SDS011;9357;49.900;8.208;2023-03-01T02:03:21;17.83;;;12.13;;
18455;SDS011;9357;49.900;8.208;2023-03-01T02:05:01;19.38;;;12.25;;
18455;SDS011;9357;49.900;8.208;2023-03-01T02:06:42;21.02;;;12.75;;
18455;SDS011;9357;49.900;8.208;2023-03-01T02:08:22;20.40;;;12.77;;
18455;SDS011;9357;49.900;8.208;2023-03-01T02:09:59;21.02;;;11.98;;
18455;SDS011;9357;49.900;8.208;2023-03-01T02:11:32;20.77;;;12.15;;
18455;SDS011;9357;49.900;8.208;2023-03-01T02:13:05;17.85;;;11.80;;
18455;SDS011;9357;49.900;8.208;2023-03-01T02:14:39;19.65;;;11.93;;
18455;SDS011;9357;49.900;8.208;2023-03-01T02:16:11;20.33;;;12.55;;
18455;SDS011;9357;49.900;8.208;2023-03-01T02:17:46;22.15;;;12.07;;
18455;SDS011;9357;49.900;8.208;2023-03-01T02:19:21;19.02;;;12.80;;
18455;SDS011;9357;49.900;8.208;2023-03-01T02:21:17;21.90;;;12.20;;
18455;SDS011;9357;49.900;8.208;2023-03-01T02:22:59;20.80;;;12.43;;
18455;SDS011;9357;49.900;8.208;2023-03-01T02:24:34;20.85;;;12.32;;
18455;SDS011;9357;49.900;8.208;2023-03-01T02:26:15;18.95;;;12.02;;
18455;SDS011;9357;49.900;8.208;2023-03-01T02:27:54;21.73;;;13.20;;
18455;SDS011;9357;49.900;8.208;2023-03-01T02:29:36;20.33;;;12.55;;
18455;SDS011;9357;49.900;8.208;2023-03-01T02:31:09;20.77;;;13.27;;
18455;SDS011;9357;49.900;8.208;2023-03-01T02:33:12;21.42;;;12.55;;
18455;SDS011;9357;49.900;8.208;2023-03-01T02:34:45;18.73;;;12.63;;
18455;SDS011;9357;49.900;8.208;2023-03-01T02:36:18;22.88;;;13.77;;
18455;SDS011;9357;49.900;8.208;2023-03-01T02:37:53;21.52;;;12.73;;
18455;SDS011;9357;49.900;8.208;2023-03-01T02:39:28;20.95;;;12.25;;
18455;SDS011;9357;49.900;8.208;2023-03-01T02:41:04;21.77;;;12.82;;
18455;SDS011;9357;49.900;8.208;2023-03-01T02:42:40;23.77;;;13.07;;
18455;SDS011;9357;49.900;8.208;2023-03-01T02:44:19;19.25;;;12.55;;
18455;SDS011;9357;49.900;8.208;2023-03-01T02:45:57;21.55;;;13.07;;
18455;SDS011;9357;49.900;8.208;2023-03-01T02:47:29;20.90;;;13.38;;
18455;SDS011;9357;49.900;8.208;2023-03-01T02:49:15;21.92;;;13.48;;
18455;SDS011;9357;49.900;8.208;2023-03-01T02:50:53;21.17;;;12.70;;
18455;SDS011;9357;49.900;8.208;2023-03-01T02:52:45;20.85;;;12.13;;
18455;SDS011;9357;49.900;8.208;2023-03-01T02:54:25;21.27;;;12.95;;
18455;SDS011;9357;49.900;8.208;2023-03-01T02:56:01;21.27;;;12.73;;
18455;SDS011;9357;49.900;8.208;2023-03-01T02:57:34;20.77;;;13.20;;
18455;SDS011;9357;49.900;8.208;2023-03-01T02:59:09;20.90;;;12.52;;
18455;SDS011;9357;49.900;8.208;2023-03-01T03:00:42;21.50;;;13.52;;
18455;SDS011;9357;49.900;8.208;2023-03-01T03:02:20;21.52;;;13.00;;
18455;SDS011;9357;49.900;8.208;2023-03-01T03:04:08;18.67;;;12.48;;
18455;SDS011;9357;49.900;8.208;2023-03-01T03:05:42;21.30;;;13.05;;
18455;SDS011;9357;49.900;8.208;2023-03-01T03:07:15;19.38;;;12.65;;
18455;SDS011;9357;49.900;8.208;2023-03-01T03:08:47;18.90;;;12.45;;
18455;SDS011;9357;49.900;8.208;2023-03-01T03:10:21;23.13;;;13.20;;
18455;SDS011;9357;49.900;8.208;2023-03-01T03:11:57;20.80;;;13.25;;
18455;SDS011;9357;49.900;8.208;2023-03-01T03:13:30;19.27;;;12.57;;
18455;SDS011;9357;49.900;8.208;2023-03-01T03:15:03;17.65;;;12.57;;
18455;SDS011;9357;49.900;8.208;2023-03-01T03:16:40;22.90;;;13.73;;
18455;SDS011;9357;49.900;8.208;2023-03-01T03:18:16;20.42;;;12.88;;
18455;SDS011;9357;49.900;8.208;2023-03-01T03:19:49;23.25;;;13.20;;
18455;SDS011;9357;49.900;8.208;2023-03-01T03:21:22;21.83;;;12.82;;
18455;SDS011;9357;49.900;8.208;2023-03-01T03:22:55;21.20;;;12.93;;
18455;SDS011;9357;49.900;8.208;2023-03-01T03:24:29;21.67;;;13.07;;
18455;SDS011;9357;49.900;8.208;2023-03-01T03:26:09;22.05;;;13.15;;
18455;SDS011;9357;49.900;8.208;2023-03-01T03:27:44;24.52;;;13.00;;
18455;SDS011;9357;49.900;8.208;2023-03-01T03:29:17;19.83;;;12.30;;
18455;SDS011;9357;49.900;8.208;2023-03-01T03:30:50;19.58;;;12.75;;
18455;SDS011;9357;49.900;8.208;2023-03-01T03:32:22;20.77;;;13.10;;
18455;SDS011;9357;49.900;8.208;2023-03-01T03:33:56;21.55;;;12.70;;
18455;SDS011;9357;49.900;8.208;2023-03-01T03:35:30;20.52;;;12.90;;
18455;SDS011;9357;49.900;8.208;2023-03-01T03:37:03;21.58;;;13.10;;
18455;SDS011;9357;49.900;8.208;2023-03-01T03:38:56;24.38;;;13.23;;
18455;SDS011;9357;49.900;8.208;2023-03-01T03:40:30;21.98;;;13.25;;
18455;SDS011;9357;49.900;8.208;2023-03-01T03:42:04;20.55;;;13.10;;
18455;SDS011;9357;49.900;8.208;2023-03-01T03:43:37;20.05;;;12.75;;
18455;SDS011;9357;49.900;8.208;2023-03-01T03:45:13;21.25;;;13.27;;
18455;SDS011;9357;49.900;8.208;2023-03-01T03:46:45;21.83;;;13.43;;
18455;SDS011;9357;49.900;8.208;2023-03-01T03:48:18;22.25;;;13.13;;
18455;SDS011;9357;49.900;8.208;2023-03-01T03:49:53;22.08;;;12.60;;
18455;SDS011;9357;49.900;8.208;2023-03-01T03:51:25;23.02;;;13.40;;
18455;SDS011;9357;49.900;8.208;2023-03-01T03:52:59;21.70;;;13.50;;
18455;SDS011;9357;49.900;8.208;2023-03-01T03:54:33;21.13;;;13.85;;
18455;SDS011;9357;49.900;8.208;2023-03-01T03:56:06;24.20;;;13.60;;
18455;SDS011;9357;49.900;8.208;2023-03-01T03:57:39;21.08;;;13.20;;
18455;SDS011;9357;49.900;8.208;2023-03-01T03:59:12;20.35;;;13.55;;
18455;SDS011;9357;49.900;8.208;2023-03-01T04:00:45;22.33;;;13.27;;
18455;SDS011;9357;49.900;8.208;2023-03-01T04:02:19;21.65;;;13.57;;
18455;SDS011;9357;49.900;8.208;2023-03-01T04:03:53;21.90;;;13.45;;
18455;SDS011;9357;49.900;8.208;2023-03-01T04:05:28;22.05;;;13.18;;
18455;SDS011;9357;49.900;8.208;2023-03-01T04:07:00;24.35;;;13.85;;
18455;SDS011;9357;49.900;8.208;2023-03-01T04:08:33;21.13;;;13.63;;
18455;SDS011;9357;49.900;8.208;2023-03-01T04:10:07;23.15;;;12.57;;
18455;SDS011;9357;49.900;8.208;2023-03-01T04:11:41;23.67;;;13.65;;
18455;SDS011;9357;49.900;8.208;2023-03-01T04:13:15;21.20;;;13.35;;
18455;SDS011;9357;49.900;8.208;2023-03-01T04:14:50;20.95;;;13.43;;
18455;SDS011;9357;49.900;8.208;2023-03-01T04:16:23;23.67;;;13.25;;
18455;SDS011;9357;49.900;8.208;2023-03-01T04:17:57;20.70;;;12.50;;
18455;SDS011;9357;49.900;8.208;2023-03-01T04:19:30;20.15;;;12.25;;
18455;SDS011;9357;49.900;8.208;2023-03-01T04:21:08;21.52;;;12.82;;
18455;SDS011;9357;49.900;8.208;2023-03-01T04:22:42;21.05;;;13.13;;
18455;SDS011;9357;49.900;8.208;2023-03-01T04:24:18;20.85;;;12.80;;
18455;SDS011;9357;49.900;8.208;2023-03-01T04:25:51;21.17;;;13.65;;
18455;SDS011;9357;49.900;8.208;2023-03-01T04:27:26;23.38;;;14.13;;
18455;SDS011;9357;49.900;8.208;2023-03-01T04:28:58;21.77;;;13.18;;
18455;SDS011;9357;49.900;8.208;2023-03-01T04:30:31;24.52;;;13.80;;
18455;SDS011;9357;49.900;8.208;2023-03-01T04:32:06;19.42;;;12.32;;
18455;SDS011;9357;49.900;8.208;2023-03-01T04:33:39;21.35;;;12.75;;
18455;SDS011;9357;49.900;8.208;2023-03-01T04:35:13;21.77;;;12.85;;
18455;SDS011;9357;49.900;8.208;2023-03-01T04:36:47;19.75;;;12.73;;
18455;SDS011;9357;49.900;8.208;2023-03-01T04:38:20;22.88;;;13.40;;
18455;SDS011;9357;49.900;8.208;2023-03-01T04:39:53;21.30;;;12.98;;
18455;SDS011;9357;49.900;8.208;2023-03-01T04:41:25;21.55;;;13.20;;
18455;SDS011;9357;49.900;8.208;2023-03-01T04:42:58;21.05;;;13.07;;
18455;SDS011;9357;49.900;8.208;2023-03-01T04:44:30;24.60;;;13.45;;
18455;SDS011;9357;49.900;8.208;2023-03-01T04:46:03;21.55;;;13.48;;
18455;SDS011;9357;49.900;8.208;2023-03-01T04:47:40;20.92;;;12.32;;
18455;SDS011;9357;49.900;8.208;2023-03-01T04:49:13;21.33;;;13.15;;
18455;SDS011;9357;49.900;8.208;2023-03-01T04:50:47;20.17;;;12.95;;
18455;SDS011;9357;49.900;8.208;2023-03-01T04:52:21;19.25;;;12.30;;
18455;SDS011;9357;49.900;8.208;2023-03-01T04:53:53;21.73;;;12.98;;
18455;SDS011;9357;49.900;8.208;2023-03-01T04:55:26;20.45;;;12.05;;
18455;SDS011;9357;49.900;8.208;2023-03-01T04:56:58;20.95;;;13.27;;
18455;SDS011;9357;49.900;8.208;2023-03-01T04:58:32;20.48;;;13.20;;
18455;SDS011;9357;49.900;8.208;2023-03-01T05:00:06;23.05;;;13.18;;
18455;SDS011;9357;49.900;8.208;2023-03-01T05:01:51;21.38;;;13.00;;
18455;SDS011;9357;49.900;8.208;2023-03-01T05:03:26;23.67;;;13.48;;
18455;SDS011;9357;49.900;8.208;2023-03-01T05:04:59;23.80;;;13.55;;
18455;SDS011;9357;49.900;8.208;2023-03-01T05:06:32;23.48;;;13.75;;
18455;SDS011;9357;49.900;8.208;2023-03-01T05:08:07;23.20;;;14.02;;
18455;SDS011;9357;49.900;8.208;2023-03-01T05:09:40;21.98;;;13.07;;
18455;SDS011;9357;49.900;8.208;2023-03-01T05:11:13;22.92;;;13.73;;
18455;SDS011;9357;49.900;8.208;2023-03-01T05:12:45;22.50;;;13.85;;
18455;SDS011;9357;49.900;8.208;2023-03-01T05:14:17;22.13;;;13.77;;
18455;SDS011;9357;49.900;8.208;2023-03-01T05:15:53;24.15;;;13.52;;
18455;SDS011;9357;49.900;8.208;2023-03-01T05:17:26;22.25;;;13.85;;
18455;SDS011;9357;49.900;8.208;2023-03-01T05:18:59;22.83;;;13.88;;
18455;SDS011;9357;49.900;8.208;2023-03-01T05:20:32;22.85;;;13.68;;
18455;SDS011;9357;49.900;8.208;2023-03-01T05:22:07;25.25;;;14.45;;
18455;SDS011;9357;49.900;8.208;2023-03-01T05:23:41;21.90;;;13.85;;
18455;SDS011;9357;49.900;8.208;2023-03-01T05:25:14;22.13;;;14.07;;
18455;SDS011;9357;49.900;8.208;2023-03-01T05:26:47;22.00;;;13.48;;
18455;SDS011;9357;49.900;8.208;2023-03-01T05:28:22;23.77;;;13.70;;
18455;SDS011;9357;49.900;8.208;2023-03-01T05:29:55;22.02;;;13.98;;
18455;SDS011;9357;49.900;8.208;2023-03-01T05:31:28;23.70;;;14.55;;
18455;SDS011;9357;49.900;8.208;2023-03-01T05:33:02;24.05;;;14.77;;
18455;SDS011;9357;49.900;8.208;2023-03-01T05:34:35;25.23;;;14.27;;
18455;SDS011;9357;49.900;8.208;2023-03-01T05:36:08;23.45;;;14.20;;
18455;SDS011;9357;49.900;8.208;2023-03-01T05:37:42;23.83;;;14.38;;
18455;SDS011;9357;49.900;8.208;2023-03-01T05:39:17;23.17;;;13.57;;
18455;SDS011;9357;49.900;8.208;2023-03-01T05:40:49;24.05;;;13.98;;
18455;SDS011;9357;49.900;8.208;2023-03-01T05:42:21;23.08;;;13.93;;
18455;SDS011;9357;49.900;8.208;2023-03-01T05:43:54;21.88;;;14.32;;
18455;SDS011;9357;49.900;8.208;2023-03-01T05:45:27;24.45;;;13.98;;
18455;SDS011;9357;49.900;8.208;2023-03-01T05:47:00;22.73;;;14.20;;
18455;SDS011;9357;49.900;8.208;2023-03-01T05:48:32;24.45;;;14.13;;
18455;SDS011;9357;49.900;8.208;2023-03-01T05:50:04;23.85;;;14.60;;
18455;SDS011;9357;49.900;8.208;2023-03-01T05:51:38;25.45;;;14.52;;
18455;SDS011;9357;49.900;8.208;2023-03-01T05:53:12;22.65;;;13.90;;
18455;SDS011;9357;49.900;8.208;2023-03-01T05:54:47;24.25;;;14.88;;
18455;SDS011;9357;49.900;8.208;2023-03-01T05:56:20;24.35;;;14.63;;
18455;SDS011;9357;49.900;8.208;2023-03-01T05:57:54;23.45;;;14.70;;
18455;SDS011;9357;49.900;8.208;2023-03-01T05:59:26;24.77;;;14.85;;
18455;SDS011;9357;49.900;8.208;2023-03-01T06:00:59;25.33;;;14.90;;
18455;SDS011;9357;49.900;8.208;2023-03-01T06:02:32;24.02;;;14.48;;
18455;SDS011;9357;49.900;8.208;2023-03-01T06:04:04;25.05;;;15.20;;
18455;SDS011;9357;49.900;8.208;2023-03-01T06:05:37;26.27;;;15.23;;
18455;SDS011;9357;49.900;8.208;2023-03-01T06:07:10;25.40;;;14.80;;
18455;SDS011;9357;49.900;8.208;2023-03-01T06:08:42;22.70;;;13.82;;
18455;SDS011;9357;49.900;8.208;2023-03-01T06:10:17;22.73;;;13.98;;
18455;SDS011;9357;49.900;8.208;2023-03-01T06:11:50;28.45;;;15.32;;
18455;SDS011;9357;49.900;8.208;2023-03-01T06:13:23;26.77;;;14.93;;
18455;SDS011;9357;49.900;8.208;2023-03-01T06:14:56;25.95;;;15.70;;
18455;SDS011;9357;49.900;8.208;2023-03-01T06:16:28;26.42;;;15.20;;
18455;SDS011;9357;49.900;8.208;2023-03-01T06:18:01;25.85;;;15.65;;
18455;SDS011;9357;49.900;8.208;2023-03-01T06:19:34;26.67;;;15.13;;
18455;SDS011;9357;49.900;8.208;2023-03-01T06:21:06;27.42;;;15.10;;
18455;SDS011;9357;49.900;8.208;2023-03-01T06:22:40;23.83;;;14.15;;
18455;SDS011;9357;49.900;8.208;2023-03-01T06:24:12;24.40;;;15.05;;
18455;SDS011;9357;49.900;8.208;2023-03-01T06:25:46;26.55;;;15.02;;
18455;SDS011;9357;49.900;8.208;2023-03-01T06:27:19;26.30;;;15.77;;
18455;SDS011;9357;49.900;8.208;2023-03-01T06:28:52;27.70;;;15.23;;
18455;SDS011;9357;49.900;8.208;2023-03-01T06:30:25;25.23;;;14.30;;
18455;SDS011;9357;49.900;8.208;2023-03-01T06:31:58;27.27;;;15.23;;
18455;SDS011;9357;49.900;8.208;2023-03-01T06:33:31;26.33;;;16.30;;
18455;SDS011;9357;49.900;8.208;2023-03-01T06:35:04;27.67;;;15.73;;
18455;SDS011;9357;49.900;8.208;2023-03-01T06:36:37;25.25;;;15.88;;
18455;SDS011;9357;49.900;8.208;2023-03-01T06:38:10;24.75;;;14.85;;
18455;SDS011;9357;49.900;8.208;2023-03-01T06:39:43;24.83;;;14.85;;
18455;SDS011;9357;49.900;8.208;2023-03-01T06:41:17;26.58;;;15.30;;
18455;SDS011;9357;49.900;8.208;2023-03-01T06:42:49;25.85;;;15.00;;
18455;SDS011;9357;49.900;8.208;2023-03-01T06:44:22;24.67;;;14.48;;
18455;SDS011;9357;49.900;8.208;2023-03-01T06:45:55;25.05;;;15.00;;
18455;SDS011;9357;49.900;8.208;2023-03-01T06:47:27;25.38;;;15.00;;
18455;SDS011;9357;49.900;8.208;2023-03-01T06:49:00;23.45;;;14.82;;
18455;SDS011;9357;49.900;8.208;2023-03-01T06:50:35;26.17;;;15.45;;
18455;SDS011;9357;49.900;8.208;2023-03-01T06:52:08;24.20;;;14.43;;
18455;SDS011;9357;49.900;8.208;2023-03-01T06:53:41;23.45;;;14.40;;
18455;SDS011;9357;49.900;8.208;2023-03-01T06:55:14;24.02;;;14.55;;
18455;SDS011;9357;49.900;8.208;2023-03-01T06:56:48;28.65;;;16.08;;
18455;SDS011;9357;49.900;8.208;2023-03-01T06:58:22;25.80;;;14.77;;
18455;SDS011;9357;49.900;8.208;2023-03-01T06:59:55;24.90;;;14.57;;
18455;SDS011;9357;49.900;8.208;2023-03-01T07:01:27;27.63;;;15.35;;
18455;SDS011;9357;49.900;8.208;2023-03-01T07:03:00;24.98;;;14.93;;
18455;SDS011;9357;49.900;8.208;2023-03-01T07:04:34;23.17;;;15.07;;
18455;SDS011;9357;49.900;8.208;2023-03-01T07:06:07;25.50;;;15.38;;
18455;SDS011;9357;49.900;8.208;2023-03-01T07:07:39;23.20;;;14.88;;
18455;SDS011;9357;49.900;8.208;2023-03-01T07:09:12;24.10;;;14.52;;
18455;SDS011;9357;49.900;8.208;2023-03-01T07:10:45;24.80;;;14.98;;
18455;SDS011;9357;49.900;8.208;2023-03-01T07:12:19;26.52;;;14.90;;
18455;SDS011;9357;49.900;8.208;2023-03-01T07:13:52;24.23;;;14.77;;
18455;SDS011;9357;49.900;8.208;2023-03-01T07:15:26;24.58;;;14.90;;
18455;SDS011;9357;49.900;8.208;2023-03-01T07:16:59;27.23;;;14.85;;
18455;SDS011;9357;49.900;8.208;2023-03-01T07:18:32;23.80;;;14.25;;
18455;SDS011;9357;49.900;8.208;2023-03-01T07:20:05;23.48;;;14.35;;
18455;SDS011;9357;49.900;8.208;2023-03-01T07:21:38;25.77;;;15.15;;
18455;SDS011;9357;49.900;8.208;2023-03-01T07:23:11;25.85;;;14.65;;
18455;SDS011;9357;49.900;8.208;2023-03-01T07:24:44;28.05;;;14.75;;
18455;SDS011;9357;49.900;8.208;2023-03-01T07:26:17;22.30;;;14.07;;
18455;SDS011;9357;49.900;8.208;2023-03-01T07:27:51;22.95;;;14.18;;
18455;SDS011;9357;49.900;8.208;2023-03-01T07:29:24;24.23;;;14.35;;
18455;SDS011;9357;49.900;8.208;2023-03-01T07:31:00;24.55;;;14.98;;
18455;SDS011;9357;49.900;8.208;2023-03-01T07:32:33;23.17;;;15.18;;
18455;SDS011;9357;49.900;8.208;2023-03-01T07:34:06;22.95;;;14.65;;
18455;SDS011;9357;49.900;8.208;2023-03-01T07:35:39;24.27;;;14.77;;
18455;SDS011;9357;49.900;8.208;2023-03-01T07:37:12;23.38;;;14.23;;
18455;SDS011;9357;49.900;8.208;2023-03-01T07:38:44;23.02;;;14.48;;
18455;SDS011;9357;49.900;8.208;2023-03-01T07:40:17;24.38;;;13.70;;
18455;SDS011;9357;49.900;8.208;2023-03-01T07:41:50;22.55;;;14.68;;
18455;SDS011;9357;49.900;8.208;2023-03-01T07:43:25;25.15;;;15.25;;
18455;SDS011;9357;49.900;8.208;2023-03-01T07:44:57;21.95;;;14.82;;
18455;SDS011;9357;49.900;8.208;2023-03-01T07:46:30;24.77;;;14.90;;
18455;SDS011;9357;49.900;8.208;2023-03-01T07:48:03;23.33;;;15.07;;
18455;SDS011;9357;49.900;8.208;2023-03-01T07:49:36;22.23;;;14.20;;
18455;SDS011;9357;49.900;8.208;2023-03-01T07:51:09;24.05;;;14.25;;
18455;SDS011;9357;49.900;8.208;2023-03-01T07:52:44;21.10;;;13.25;;
18455;SDS011;9357;49.900;8.208;2023-03-01T07:54:17;22.88;;;14.48;;
18455;SDS011;9357;49.900;8.208;2023-03-01T07:55:50;24.27;;;14.38;;
18455;SDS011;9357;49.900;8.208;2023-03-01T07:57:32;21.98;;;14.70;;
18455;SDS011;9357;49.900;8.208;2023-03-01T07:59:06;23.50;;;14.60;;
18455;SDS011;9357;49.900;8.208;2023-03-01T08:00:39;21.98;;;14.45;;
18455;SDS011;9357;49.900;8.208;2023-03-01T08:02:12;25.25;;;16.08;;
18455;SDS011;9357;49.900;8.208;2023-03-01T08:03:46;23.27;;;14.90;;
18455;SDS011;9357;49.900;8.208;2023-03-01T08:05:19;35.13;;;22.30;;
18455;SDS011;9357;49.900;8.208;2023-03-01T08:06:53;22.50;;;14.27;;
18455;SDS011;9357;49.900;8.208;2023-03-01T08:08:26;28.20;;;18.13;;
18455;SDS011;9357;49.900;8.208;2023-03-01T08:09:59;32.38;;;20.55;;
18455;SDS011;9357;49.900;8.208;2023-03-01T08:11:32;20.92;;;13.80;;
18455;SDS011;9357;49.900;8.208;2023-03-01T08:13:04;23.38;;;15.65;;
18455;SDS011;9357;49.900;8.208;2023-03-01T08:14:38;24.00;;;15.77;;
18455;SDS011;9357;49.900;8.208;2023-03-01T08:16:12;22.10;;;13.57;;
18455;SDS011;9357;49.900;8.208;2023-03-01T08:17:46;21.27;;;14.27;;
18455;SDS011;9357;49.900;8.208;2023-03-01T08:19:21;23.38;;;16.10;;
18455;SDS011;9357;49.900;8.208;2023-03-01T08:20:54;22.98;;;16.08;;
18455;SDS011;9357;49.900;8.208;2023-03-01T08:22:26;21.73;;;14.75;;
18455;SDS011;9357;49.900;8.208;2023-03-01T08:23:59;20.95;;;14.88;;
18455;SDS011;9357;49.900;8.208;2023-03-01T08:25:32;21.63;;;14.55;;
18455;SDS011;9357;49.900;8.208;2023-03-01T08:27:05;27.42;;;17.20;;
18455;SDS011;9357;49.900;8.208;2023-03-01T08:28:38;27.48;;;15.82;;
18455;SDS011;9357;49.900;8.208;2023-03-01T08:30:13;23.73;;;15.00;;
18455;SDS011;9357;49.900;8.208;2023-03-01T08:31:46;21.92;;;14.63;;
18455;SDS011;9357;49.900;8.208;2023-03-01T08:33:19;21.20;;;14.45;;
18455;SDS011;9357;49.900;8.208;2023-03-01T08:34:52;22.35;;;15.95;;
18455;SDS011;9357;49.900;8.208;2023-03-01T08:36:25;27.27;;;17.65;;
18455;SDS011;9357;49.900;8.208;2023-03-01T08:38:00;21.63;;;15.07;;
18455;SDS011;9357;49.900;8.208;2023-03-01T08:39:32;20.05;;;13.90;;
18455;SDS011;9357;49.900;8.208;2023-03-01T08:41:05;22.65;;;14.43;;
18455;SDS011;9357;49.900;8.208;2023-03-01T08:42:38;25.10;;;16.50;;
18455;SDS011;9357;49.900;8.208;2023-03-01T08:44:11;21.02;;;14.60;;
18455;SDS011;9357;49.900;8.208;2023-03-01T08:45:46;19.02;;;12.27;;
18455;SDS011;9357;49.900;8.208;2023-03-01T08:47:20;20.05;;;14.68;;
18455;SDS011;9357;49.900;8.208;2023-03-01T08:48:53;21.60;;;14.45;;
18455;SDS011;9357;49.900;8.208;2023-03-01T08:50:26;22.88;;;14.82;;
18455;SDS011;9357;49.900;8.208;2023-03-01T08:51:58;23.05;;;15.32;;
18455;SDS011;9357;49.900;8.208;2023-03-01T08:53:32;20.45;;;14.10;;
18455;SDS011;9357;49.900;8.208;2023-03-01T08:55:05;20.33;;;13.90;;
18455;SDS011;9357;49.900;8.208;2023-03-01T08:56:39;20.95;;;14.40;;
18455;SDS011;9357;49.900;8.208;2023-03-01T08:58:12;20.95;;;14.50;;
18455;SDS011;9357;49.900;8.208;2023-03-01T08:59:44;20.90;;;14.38;;
18455;SDS011;9357;49.900;8.208;2023-03-01T09:01:18;19.88;;;13.65;;
18455;SDS011;9357;49.900;8.208;2023-03-01T09:02:51;19.40;;;14.15;;
18455;SDS011;9357;49.900;8.208;2023-03-01T09:04:24;20.10;;;13.50;;
18455;SDS011;9357;49.900;8.208;2023-03-01T09:05:59;19.23;;;14.43;;
18455;SDS011;9357;49.900;8.208;2023-03-01T09:07:32;20.05;;;13.10;;
18455;SDS011;9357;49.900;8.208;2023-03-01T09:09:05;20.08;;;13.55;;
18455;SDS011;9357;49.900;8.208;2023-03-01T09:10:40;20.40;;;14.00;;
18455;SDS011;9357;49.900;8.208;2023-03-01T09:12:13;16.60;;;12.63;;
18455;SDS011;9357;49.900;8.208;2023-03-01T09:13:45;17.83;;;13.70;;
18455;SDS011;9357;49.900;8.208;2023-03-01T09:15:19;19.27;;;13.23;;
18455;SDS011;9357;49.900;8.208;2023-03-01T09:16:53;20.13;;;13.85;;